createdAt,value
2019-04-04T00:02:00.625Z,23.23
2019-04-04T00:04:30.331Z,23.70
2019-04-04T00:07:01.501Z,19.80
2019-04-04T00:09:33.771Z,19.07
2019-04-04T00:12:06.106Z,18.87
2019-04-04T00:14:36.821Z,18.50
2019-04-04T00:17:06.717Z,20.27
2019-04-04T00:19:36.602Z,19.20
2019-04-04T00:22:06.592Z,19.37
2019-04-04T00:24:39.355Z,17.07
2019-04-04T00:27:08.509Z,16.70
2019-04-04T00:29:38.203Z,18.20
2019-04-04T00:32:07.972Z,17.50
2019-04-04T00:34:37.716Z,17.37
2019-04-04T00:37:07.286Z,19.00
2019-04-04T00:39:37.995Z,18.03
2019-04-04T00:42:08.564Z,19.17
2019-04-04T00:44:41.000Z,19.50
2019-04-04T00:47:10.709Z,20.47
2019-04-04T00:49:40.244Z,21.17
2019-04-04T00:52:10.319Z,23.20
2019-04-04T00:54:43.001Z,23.60
2019-04-04T00:57:13.363Z,23.90
2019-04-04T00:59:43.121Z,23.90
2019-04-04T01:02:12.763Z,24.00
2019-04-04T01:04:47.091Z,26.77
2019-04-04T01:07:16.642Z,26.40
2019-04-04T01:09:47.897Z,25.50
2019-04-04T01:12:17.962Z,26.73
2019-04-04T01:14:47.720Z,26.07
2019-04-04T01:17:17.352Z,26.90
2019-04-04T01:19:48.727Z,26.20
2019-04-04T01:22:18.500Z,23.43
2019-04-04T01:24:48.347Z,23.97
2019-04-04T01:27:17.954Z,24.00
2019-04-04T01:29:47.687Z,22.23
2019-04-04T01:32:17.712Z,20.93
2019-04-04T01:34:47.351Z,20.33
2019-04-04T01:37:17.086Z,19.53
2019-04-04T01:39:46.696Z,19.00
2019-04-04T01:42:16.225Z,19.60
2019-04-04T01:44:45.762Z,16.20
2019-04-04T01:47:17.125Z,15.70
2019-04-04T01:49:46.875Z,15.63
2019-04-04T01:52:16.425Z,14.57
2019-04-04T01:54:45.952Z,14.97
2019-04-04T01:57:15.546Z,13.73
2019-04-04T01:59:45.071Z,14.53
2019-04-04T02:02:17.671Z,13.67
2019-04-04T02:04:46.503Z,12.67
2019-04-04T02:07:16.094Z,13.23
2019-04-04T02:09:48.032Z,12.63
2019-04-04T02:12:17.839Z,12.50
2019-04-04T02:14:47.549Z,12.70
2019-04-04T02:17:17.246Z,12.23
2019-04-04T02:19:46.972Z,11.27
2019-04-04T02:22:16.591Z,12.40
2019-04-04T02:24:46.307Z,12.60
2019-04-04T02:27:15.964Z,12.80
2019-04-04T02:29:45.565Z,11.73
2019-04-04T02:32:16.969Z,11.30
2019-04-04T02:34:46.609Z,12.93
2019-04-04T02:37:16.302Z,13.33
2019-04-04T02:39:46.021Z,12.90
2019-04-04T02:42:15.613Z,14.20
2019-04-04T02:44:45.307Z,13.20
2019-04-04T02:47:17.487Z,13.10
2019-04-04T02:49:46.394Z,14.50
2019-04-04T02:52:15.919Z,13.43
2019-04-04T02:54:45.779Z,14.30
2019-04-04T02:57:15.481Z,15.10
2019-04-04T02:59:45.603Z,14.17
2019-04-04T03:02:15.350Z,14.10
2019-04-04T03:04:46.827Z,14.30
2019-04-04T03:07:16.592Z,16.17
2019-04-04T03:09:46.808Z,15.70
2019-04-04T03:12:20.150Z,15.43
2019-04-04T03:14:50.743Z,15.60
2019-04-04T03:17:20.859Z,15.27
2019-04-04T03:19:50.530Z,14.87
2019-04-04T03:22:20.448Z,16.03
2019-04-04T03:24:50.552Z,16.03
2019-04-04T03:27:25.621Z,15.30
2019-04-04T03:29:51.664Z,15.23
2019-04-04T03:32:21.465Z,16.83
2019-04-04T03:34:51.762Z,16.47
2019-04-04T03:37:21.835Z,15.67
2019-04-04T03:39:53.317Z,16.73
2019-04-04T03:42:23.231Z,14.73
2019-04-04T03:44:54.212Z,16.10
2019-04-04T03:47:24.169Z,14.33
2019-04-04T03:49:56.832Z,15.73
2019-04-04T03:52:24.971Z,14.90
2019-04-04T03:54:56.211Z,15.27
2019-04-04T03:57:26.030Z,15.50
2019-04-04T03:59:55.628Z,15.17
2019-04-04T04:02:25.360Z,14.73
2019-04-04T04:05:00.577Z,14.30
2019-04-04T04:07:26.678Z,14.80
2019-04-04T04:09:59.775Z,14.13
2019-04-04T04:12:29.859Z,14.07
2019-04-04T04:15:00.026Z,14.37
2019-04-04T04:17:30.054Z,13.53
2019-04-04T04:20:03.275Z,13.30
2019-04-04T04:22:30.863Z,12.90
2019-04-04T04:25:03.316Z,13.57
2019-04-04T04:27:33.090Z,12.20
2019-04-04T04:30:05.916Z,13.63
2019-04-04T04:32:37.226Z,12.50
2019-04-04T04:35:08.581Z,13.20
2019-04-04T04:37:38.691Z,13.83
2019-04-04T04:40:13.789Z,13.90
2019-04-04T04:42:40.637Z,13.07
2019-04-04T04:45:12.101Z,13.80
2019-04-04T04:47:41.829Z,13.23
2019-04-04T04:50:11.626Z,12.57
2019-04-04T04:52:41.324Z,13.33
2019-04-04T04:55:12.996Z,12.60
2019-04-04T04:57:42.662Z,13.27
2019-04-04T05:00:14.001Z,13.80
2019-04-04T05:02:44.245Z,13.33
2019-04-04T05:05:14.041Z,12.90
2019-04-04T05:07:43.851Z,13.80
2019-04-04T05:10:18.159Z,12.47
2019-04-04T05:12:47.784Z,14.50
2019-04-04T05:15:21.601Z,13.60
2019-04-04T05:17:51.273Z,12.47
2019-04-04T05:20:20.931Z,12.73
2019-04-04T05:22:50.609Z,13.00
2019-04-04T05:25:22.406Z,12.53
2019-04-04T05:27:52.052Z,12.10
2019-04-04T05:30:21.660Z,13.17
2019-04-04T05:32:53.154Z,13.07
2019-04-04T05:35:22.876Z,14.67
2019-04-04T05:37:52.590Z,15.57
2019-04-04T05:40:23.552Z,14.80
2019-04-04T05:42:54.047Z,15.20
2019-04-04T05:45:23.857Z,15.37
2019-04-04T05:47:56.342Z,15.90
2019-04-04T05:50:25.257Z,15.80
2019-04-04T05:52:55.481Z,15.70
2019-04-04T05:55:26.115Z,17.27
2019-04-04T05:57:56.029Z,17.90
2019-04-04T06:00:27.397Z,16.73
2019-04-04T06:02:57.344Z,18.30
2019-04-04T06:05:31.673Z,17.80
2019-04-04T06:08:00.290Z,18.00
2019-04-04T06:10:30.286Z,17.80
2019-04-04T06:12:59.954Z,17.40
2019-04-04T06:15:32.144Z,17.17
2019-04-04T06:18:01.881Z,17.23
2019-04-04T06:20:31.493Z,15.73
2019-04-04T06:23:01.345Z,16.50
2019-04-04T06:25:34.754Z,17.70
2019-04-04T06:28:03.129Z,16.93
2019-04-04T06:30:43.097Z,16.50
2019-04-04T06:33:06.563Z,16.17
2019-04-04T06:35:39.652Z,16.80
2019-04-04T06:38:08.408Z,18.47
2019-04-04T06:40:38.274Z,18.50
2019-04-04T06:43:11.497Z,18.07
2019-04-04T06:45:39.746Z,18.37
2019-04-04T06:48:10.210Z,18.10
2019-04-04T06:50:42.949Z,18.40
2019-04-04T06:53:11.805Z,18.97
2019-04-04T06:55:41.469Z,19.30
2019-04-04T06:58:16.879Z,19.63
2019-04-04T07:00:48.484Z,18.97
2019-04-04T07:03:20.856Z,19.67
2019-04-04T07:05:50.415Z,18.60
2019-04-04T07:08:20.168Z,17.80
2019-04-04T07:10:57.759Z,20.00
2019-04-04T07:13:26.628Z,22.27
2019-04-04T07:16:06.192Z,21.83
2019-04-04T07:18:25.674Z,19.67
2019-04-04T07:20:55.698Z,21.77
2019-04-04T07:23:28.249Z,22.57
2019-04-04T07:25:57.276Z,22.10
2019-04-04T07:28:30.620Z,23.40
2019-04-04T07:31:01.205Z,25.27
2019-04-04T07:33:31.114Z,24.53
2019-04-04T07:36:01.052Z,24.10
2019-04-04T07:38:31.014Z,26.30
2019-04-04T07:41:00.889Z,29.17
2019-04-04T07:43:30.738Z,27.93
2019-04-04T07:46:15.317Z,28.60
2019-04-04T07:48:32.350Z,28.97
2019-04-04T07:51:02.763Z,28.37
2019-04-04T07:53:34.227Z,30.50
2019-04-04T07:56:04.381Z,28.83
2019-04-04T07:58:34.290Z,30.23
2019-04-04T08:01:04.231Z,31.07
2019-04-04T08:03:34.650Z,30.97
2019-04-04T08:06:04.365Z,29.47
2019-04-04T08:08:34.489Z,31.70
2019-04-04T08:11:04.400Z,32.87
2019-04-04T08:13:34.168Z,34.43
2019-04-04T08:16:03.781Z,32.80
2019-04-04T08:18:33.678Z,30.93
2019-04-04T08:21:05.722Z,33.93
2019-04-04T08:23:36.223Z,33.17
2019-04-04T08:26:06.092Z,33.60
2019-04-04T08:28:36.701Z,33.43
2019-04-04T08:31:09.628Z,36.60
2019-04-04T08:33:39.780Z,32.87
2019-04-04T08:36:09.616Z,33.87
2019-04-04T08:38:42.592Z,34.57
2019-04-04T08:41:12.492Z,35.33
2019-04-04T08:43:46.226Z,35.10
2019-04-04T08:46:16.365Z,35.73
2019-04-04T08:48:54.061Z,34.43
2019-04-04T08:51:23.911Z,34.67
2019-04-04T08:53:53.860Z,33.37
2019-04-04T08:56:23.776Z,33.60
2019-04-04T08:58:53.931Z,35.07
2019-04-04T09:01:23.750Z,32.77
2019-04-04T09:03:53.804Z,36.33
2019-04-04T09:06:23.746Z,35.87
2019-04-04T09:08:53.654Z,37.30
2019-04-04T09:11:23.834Z,38.03
2019-04-04T09:13:53.631Z,38.80
2019-04-04T09:16:23.572Z,39.67
2019-04-04T09:18:53.224Z,40.90
2019-04-04T09:21:26.556Z,38.83
2019-04-04T09:23:56.245Z,42.03
2019-04-04T09:26:26.094Z,38.00
2019-04-04T09:28:55.871Z,37.00
2019-04-04T09:31:25.635Z,39.33
2019-04-04T09:33:55.223Z,37.67
2019-04-04T09:36:25.003Z,39.47
2019-04-04T09:38:54.724Z,37.03
2019-04-04T09:41:24.457Z,39.10
2019-04-04T09:43:55.465Z,37.50
2019-04-04T09:46:25.199Z,31.07
2019-04-04T09:48:55.103Z,31.10
2019-04-04T09:51:24.930Z,27.57
2019-04-04T09:53:54.891Z,27.50
2019-04-04T09:56:24.531Z,27.63
2019-04-04T09:58:55.044Z,25.50
2019-04-04T10:01:25.195Z,26.50
2019-04-04T10:03:54.793Z,23.80
2019-04-04T10:06:25.243Z,24.27
2019-04-04T10:08:54.936Z,23.50
2019-04-04T10:11:24.782Z,24.47
2019-04-04T10:13:56.262Z,23.30
2019-04-04T10:16:26.049Z,22.60
2019-04-04T10:18:55.964Z,22.43
2019-04-04T10:21:25.671Z,22.83
2019-04-04T10:23:55.840Z,22.87
2019-04-04T10:26:25.474Z,24.47
2019-04-04T10:28:55.320Z,21.77
2019-04-04T10:31:25.089Z,22.60
2019-04-04T10:33:54.734Z,22.30
2019-04-04T10:36:24.280Z,23.60
2019-04-04T10:38:53.991Z,22.23
2019-04-04T10:41:23.734Z,22.97
2019-04-04T10:43:53.518Z,23.33
2019-04-04T10:46:23.425Z,23.80
2019-04-04T10:48:53.056Z,23.20
2019-04-04T10:51:25.809Z,24.40
2019-04-04T10:53:55.630Z,28.93
2019-04-04T10:56:25.363Z,23.43
2019-04-04T10:58:55.103Z,24.57
2019-04-04T11:01:24.709Z,24.47
2019-04-04T11:03:55.742Z,22.93
2019-04-04T11:06:25.563Z,28.70
2019-04-04T11:08:55.246Z,26.40
2019-04-04T11:11:25.001Z,24.67
2019-04-04T11:13:57.403Z,23.30
2019-04-04T11:16:30.263Z,23.83
2019-04-04T11:18:58.448Z,23.20
2019-04-04T11:21:28.205Z,24.03
2019-04-04T11:23:58.220Z,24.60
2019-04-04T11:26:30.297Z,25.37
2019-04-04T11:28:59.812Z,23.57
2019-04-04T11:31:30.023Z,24.57
2019-04-04T11:34:00.228Z,24.90
2019-04-04T11:36:29.823Z,23.73
2019-04-04T11:38:59.565Z,24.77
2019-04-04T11:41:29.379Z,24.60
2019-04-04T11:43:58.984Z,24.97
2019-04-04T11:46:28.654Z,24.00
2019-04-04T11:48:59.238Z,26.03
2019-04-04T11:51:29.104Z,25.13
2019-04-04T11:53:59.036Z,26.27
2019-04-04T11:56:29.175Z,25.57
2019-04-04T11:58:59.021Z,25.50
2019-04-04T12:01:30.465Z,27.37
2019-04-04T12:04:00.158Z,25.97
2019-04-04T12:06:29.922Z,25.43
2019-04-04T12:09:01.593Z,24.43
2019-04-04T12:11:33.711Z,27.07
2019-04-04T12:14:04.485Z,27.93
2019-04-04T12:16:34.258Z,26.20
2019-04-04T12:19:03.852Z,27.60
2019-04-04T12:21:33.476Z,25.57
2019-04-04T12:24:03.022Z,24.47
2019-04-04T12:26:32.766Z,26.33
2019-04-04T12:29:02.444Z,25.53
2019-04-04T12:31:32.074Z,26.80
2019-04-04T12:34:02.393Z,25.00
2019-04-04T12:36:32.191Z,26.47
2019-04-04T12:39:01.877Z,24.97
2019-04-04T12:41:31.528Z,27.50
2019-04-04T12:44:01.105Z,25.43
2019-04-04T12:46:30.829Z,28.70
2019-04-04T12:49:04.076Z,26.03
2019-04-04T12:51:33.999Z,25.77
2019-04-04T12:54:03.585Z,27.00
2019-04-04T12:56:33.535Z,27.67
2019-04-04T12:59:03.519Z,28.60
2019-04-04T13:01:33.177Z,28.67
2019-04-04T13:04:02.936Z,27.63
2019-04-04T13:06:32.645Z,30.87
2019-04-04T13:09:11.006Z,29.13
2019-04-04T13:11:40.615Z,29.57
2019-04-04T13:14:10.290Z,29.10
2019-04-04T13:16:40.382Z,29.60
2019-04-04T13:19:10.171Z,28.83
2019-04-04T13:21:40.030Z,27.83
2019-04-04T13:24:09.780Z,32.70
2019-04-04T13:26:39.430Z,29.87
2019-04-04T13:29:11.649Z,30.00
2019-04-04T13:31:42.416Z,30.20
2019-04-04T13:34:12.006Z,46.50
2019-04-04T13:36:41.715Z,28.20
2019-04-04T13:39:16.913Z,29.40
2019-04-04T13:41:49.986Z,30.17
2019-04-04T13:44:23.159Z,32.07
2019-04-04T13:46:51.254Z,32.87
2019-04-04T13:49:20.862Z,32.30
2019-04-04T13:51:50.927Z,32.97
2019-04-04T13:54:22.339Z,32.50
2019-04-04T13:56:52.026Z,34.27
2019-04-04T13:59:21.911Z,34.97
2019-04-04T14:01:51.784Z,34.43
2019-04-04T14:04:24.472Z,33.30
2019-04-04T14:06:52.871Z,34.00
2019-04-04T14:09:22.599Z,33.30
2019-04-04T14:11:52.486Z,35.43
2019-04-04T14:14:22.262Z,35.90
2019-04-04T14:16:52.131Z,34.07
2019-04-04T14:19:21.882Z,33.40
2019-04-04T14:21:51.510Z,37.27
2019-04-04T14:24:21.583Z,36.50
2019-04-04T14:26:51.311Z,37.07
2019-04-04T14:29:27.360Z,35.83
2019-04-04T14:31:53.865Z,35.60
2019-04-04T14:34:23.437Z,31.63
2019-04-04T14:36:53.232Z,35.43
2019-04-04T14:39:25.072Z,34.53
2019-04-04T14:41:54.482Z,35.50
2019-04-04T14:44:24.230Z,35.30
2019-04-04T14:46:56.479Z,31.83
2019-04-04T14:49:26.278Z,33.23
2019-04-04T14:51:56.081Z,32.60
2019-04-04T14:54:29.053Z,34.10
2019-04-04T14:56:58.942Z,35.43
2019-04-04T14:59:28.601Z,35.17
2019-04-04T15:01:58.353Z,36.97
2019-04-04T15:04:28.188Z,35.97
2019-04-04T15:06:58.022Z,35.77
2019-04-04T15:09:28.493Z,34.77
2019-04-04T15:11:58.304Z,36.10
2019-04-04T15:14:27.980Z,38.30
2019-04-04T15:16:57.740Z,37.60
2019-04-04T15:19:27.610Z,35.93
2019-04-04T15:21:57.446Z,38.37
2019-04-04T15:24:27.235Z,36.07
2019-04-04T15:26:57.391Z,35.60
2019-04-04T15:29:27.090Z,36.50
2019-04-04T15:31:56.974Z,37.67
2019-04-04T15:34:26.740Z,35.40
2019-04-04T15:36:56.499Z,36.33
2019-04-04T15:39:26.439Z,37.07
2019-04-04T15:41:56.574Z,34.17
2019-04-04T15:44:26.154Z,37.13
2019-04-04T15:46:55.910Z,38.03
2019-04-04T15:49:25.499Z,35.17
2019-04-04T15:51:55.508Z,37.07
2019-04-04T15:54:25.590Z,35.50
2019-04-04T15:56:55.443Z,35.57
2019-04-04T15:59:25.966Z,34.47
2019-04-04T16:01:55.670Z,34.27
2019-04-04T16:04:25.396Z,33.77
2019-04-04T16:06:55.272Z,34.47
2019-04-04T16:09:25.097Z,33.50
2019-04-04T16:11:54.883Z,33.93
2019-04-04T16:14:24.671Z,34.47
2019-04-04T16:16:55.577Z,34.90
2019-04-04T16:19:25.763Z,33.90
2019-04-04T16:21:55.404Z,35.10
2019-04-04T16:24:25.105Z,32.90
2019-04-04T16:26:55.040Z,34.10
2019-04-04T16:29:24.742Z,34.30
2019-04-04T16:32:00.775Z,36.07
2019-04-04T16:34:30.633Z,34.27
2019-04-04T16:37:00.775Z,35.53
2019-04-04T16:39:30.916Z,35.33
2019-04-04T16:42:02.545Z,37.10
2019-04-04T16:44:32.687Z,36.57
2019-04-04T16:47:04.277Z,36.13
2019-04-04T16:49:33.908Z,36.57
2019-04-04T16:52:03.698Z,34.87
2019-04-04T16:54:33.721Z,36.53
2019-04-04T16:57:03.461Z,36.77
2019-04-04T16:59:33.185Z,36.53
2019-04-04T17:02:03.098Z,39.10
2019-04-04T17:04:35.412Z,35.43
2019-04-04T17:07:05.531Z,34.83
2019-04-04T17:09:36.298Z,35.80
2019-04-04T17:12:14.703Z,37.20
2019-04-04T17:14:37.909Z,36.10
2019-04-04T17:17:07.708Z,35.93
2019-04-04T17:19:37.451Z,38.77
2019-04-04T17:22:07.194Z,36.10
2019-04-04T17:24:37.104Z,37.17
2019-04-04T17:27:06.789Z,36.67
2019-04-04T17:29:36.491Z,37.83
2019-04-04T17:32:06.518Z,37.57
2019-04-04T17:34:36.552Z,36.07
2019-04-04T17:37:06.572Z,36.10
2019-04-04T17:39:36.507Z,39.50
2019-04-04T17:42:06.439Z,38.40
2019-04-04T17:44:36.454Z,36.87
2019-04-04T17:47:06.705Z,37.90
2019-04-04T17:49:36.542Z,39.53
2019-04-04T17:52:06.772Z,38.80
2019-04-04T17:54:36.548Z,37.87
2019-04-04T17:57:06.800Z,38.60
2019-04-04T17:59:36.525Z,41.03
2019-04-04T18:02:06.260Z,40.33
2019-04-04T18:04:47.577Z,41.43
2019-04-04T18:07:07.341Z,41.60
2019-04-04T18:09:41.022Z,40.77
2019-04-04T18:12:11.256Z,39.43
2019-04-04T18:14:40.927Z,45.10
2019-04-04T18:17:10.732Z,41.93
2019-04-04T18:19:40.433Z,42.23
2019-04-04T18:22:10.074Z,42.17
2019-04-04T18:24:39.793Z,42.70
2019-04-04T18:27:09.407Z,40.90
2019-04-04T18:29:39.121Z,40.23
2019-04-04T18:32:08.756Z,43.00
2019-04-04T18:34:38.471Z,41.60
2019-04-04T18:37:09.307Z,39.60
2019-04-04T18:39:39.078Z,39.10
2019-04-04T18:42:08.684Z,36.40
2019-04-04T18:44:38.283Z,35.70
2019-04-04T18:47:07.994Z,34.50
2019-04-04T18:49:37.595Z,33.70
2019-04-04T18:52:07.213Z,31.90
2019-04-04T18:54:37.406Z,30.93
2019-04-04T18:57:07.207Z,29.20
2019-04-04T18:59:36.970Z,29.37
2019-04-04T19:02:07.194Z,28.33
2019-04-04T19:04:36.798Z,29.00
2019-04-04T19:07:06.382Z,26.63
2019-04-04T19:09:36.144Z,26.00
2019-04-04T19:12:05.830Z,28.17
2019-04-04T19:14:35.386Z,26.23
2019-04-04T19:17:09.344Z,27.47
2019-04-04T19:19:39.591Z,25.63
2019-04-04T19:22:09.534Z,25.60
2019-04-04T19:24:39.423Z,26.17
2019-04-04T19:27:09.266Z,24.13
2019-04-04T19:29:38.853Z,23.53
2019-04-04T19:32:08.991Z,22.70
2019-04-04T19:34:38.852Z,22.20
2019-04-04T19:37:08.738Z,21.90
2019-04-04T19:39:38.763Z,21.67
2019-04-04T19:42:08.576Z,21.27
2019-04-04T19:44:38.464Z,21.50
2019-04-04T19:47:08.257Z,20.53
2019-04-04T19:49:37.993Z,21.63
2019-04-04T19:52:08.437Z,21.23
2019-04-04T19:54:38.186Z,20.90
2019-04-04T19:57:08.026Z,19.63
2019-04-04T19:59:37.733Z,20.17
2019-04-04T20:02:07.898Z,19.90
2019-04-04T20:04:37.522Z,20.30
2019-04-04T20:07:07.228Z,19.13
2019-04-04T20:09:36.799Z,20.30
2019-04-04T20:12:06.470Z,20.70
2019-04-04T20:14:36.421Z,20.67
2019-04-04T20:17:06.261Z,20.97
2019-04-04T20:19:35.845Z,20.57
2019-04-04T20:22:05.523Z,20.97
2019-04-04T20:24:36.778Z,19.83
2019-04-04T20:27:06.545Z,20.87
2019-04-04T20:29:36.155Z,20.23
2019-04-04T20:32:25.147Z,21.40
2019-04-04T20:34:54.837Z,21.33
2019-04-04T20:37:24.599Z,20.70
2019-04-04T20:39:55.596Z,23.17
2019-04-04T20:42:26.340Z,22.13
2019-04-04T20:44:56.446Z,21.77
2019-04-04T20:47:26.716Z,22.53
2019-04-04T20:49:56.333Z,24.70
2019-04-04T20:52:26.006Z,22.10
2019-04-04T20:54:55.739Z,22.63
2019-04-04T20:57:25.326Z,24.43
2019-04-04T20:59:54.858Z,23.20
2019-04-04T21:02:24.788Z,22.50
2019-04-04T21:04:54.669Z,21.70
2019-04-04T21:07:24.632Z,23.70
2019-04-04T21:09:54.343Z,23.17
2019-04-04T21:12:23.930Z,22.73
2019-04-04T21:14:53.560Z,24.47
2019-04-04T21:17:23.590Z,23.00
2019-04-04T21:19:53.186Z,21.97
2019-04-04T21:22:27.620Z,24.33
2019-04-04T21:24:54.615Z,23.10
2019-04-04T21:27:24.602Z,24.50
2019-04-04T21:29:54.165Z,23.00
2019-04-04T21:32:23.846Z,25.23
2019-04-04T21:34:53.470Z,24.27
2019-04-04T21:37:25.153Z,24.73
2019-04-04T21:39:54.340Z,24.90
2019-04-04T21:42:23.865Z,24.20
2019-04-04T21:44:53.432Z,25.60
2019-04-04T21:47:23.134Z,25.30
2019-04-04T21:49:52.657Z,24.40
2019-04-04T21:52:22.248Z,26.53
2019-04-04T21:54:51.865Z,25.47
2019-04-04T21:57:21.472Z,26.80
2019-04-04T21:59:51.097Z,26.30
2019-04-04T22:02:20.773Z,27.57
2019-04-04T22:04:50.481Z,26.90
2019-04-04T22:07:20.118Z,26.83
2019-04-04T22:09:50.214Z,27.40
2019-04-04T22:12:19.749Z,27.00
2019-04-04T22:14:49.314Z,27.00
2019-04-04T22:17:18.970Z,28.30
2019-04-04T22:19:48.609Z,28.60
2019-04-04T22:22:18.150Z,29.63
2019-04-04T22:24:47.792Z,30.80
2019-04-04T22:27:17.347Z,35.33
2019-04-04T22:29:46.881Z,34.73
2019-04-04T22:32:16.848Z,35.50
2019-04-04T22:34:46.398Z,39.20
2019-04-04T22:37:15.960Z,44.73
2019-04-04T22:39:45.534Z,45.03
2019-04-04T22:42:15.091Z,47.10
2019-04-04T22:44:45.299Z,47.10
2019-04-04T22:47:14.880Z,47.13
2019-04-04T22:49:44.582Z,48.27
2019-04-04T22:52:14.208Z,45.30
2019-04-04T22:54:45.508Z,47.83
2019-04-04T22:57:15.129Z,44.97
2019-04-04T22:59:44.806Z,46.97
2019-04-04T23:02:14.384Z,45.10
2019-04-04T23:04:43.913Z,46.80
2019-04-04T23:07:13.597Z,45.40
2019-04-04T23:09:43.247Z,44.30
2019-04-04T23:12:14.444Z,45.30
2019-04-04T23:14:48.367Z,44.17
2019-04-04T23:17:16.550Z,43.00
2019-04-04T23:19:46.419Z,41.37
2019-04-04T23:22:15.965Z,43.20
2019-04-04T23:24:45.621Z,42.33
2019-04-04T23:27:15.263Z,42.10
2019-04-04T23:29:45.277Z,41.30
2019-04-04T23:32:14.846Z,42.13
2019-04-04T23:34:44.478Z,44.87
2019-04-04T23:37:14.019Z,44.07
2019-04-04T23:39:44.072Z,43.70
2019-04-04T23:42:13.688Z,44.50
2019-04-04T23:44:43.231Z,43.73
2019-04-04T23:47:14.166Z,44.73
2019-04-04T23:49:43.714Z,43.53
2019-04-04T23:52:13.354Z,42.33
2019-04-04T23:54:43.062Z,42.90
2019-04-04T23:57:12.780Z,43.90
2019-04-04T23:59:42.376Z,44.00
